createdAt,value
2023-03-18T00:01:13.758Z,5.70
2023-03-18T00:03:40.994Z,5.38
2023-03-18T00:06:17.047Z,6.00
2023-03-18T00:08:46.512Z,7.07
2023-03-18T00:11:15.993Z,7.90
2023-03-18T00:13:43.911Z,7.18
2023-03-18T00:16:12.830Z,7.05
2023-03-18T00:18:40.760Z,4.93
2023-03-18T00:21:10.026Z,5.95
2023-03-18T00:23:38.887Z,6.43
2023-03-18T00:26:09.203Z,7.68
2023-03-18T00:28:38.444Z,7.15
2023-03-18T00:31:11.353Z,6.55
2023-03-18T00:33:50.640Z,5.63
2023-03-18T00:36:19.412Z,6.47
2023-03-18T00:38:51.331Z,6.93
2023-03-18T00:41:19.411Z,5.03
2023-03-18T00:43:54.753Z,6.18
2023-03-18T00:46:28.218Z,7.22
2023-03-18T00:48:57.773Z,6.95
2023-03-18T00:51:26.866Z,5.63
2023-03-18T00:54:06.863Z,6.30
2023-03-18T00:56:37.860Z,6.30
2023-03-18T00:59:06.727Z,6.53
2023-03-18T01:01:34.683Z,6.35
2023-03-18T01:04:02.954Z,5.20
2023-03-18T01:06:32.783Z,6.32
2023-03-18T01:09:02.898Z,5.35
2023-03-18T01:11:37.507Z,6.05
2023-03-18T01:14:05.043Z,5.13
2023-03-18T01:16:32.462Z,6.03
2023-03-18T01:19:07.086Z,6.20
2023-03-18T01:21:34.718Z,5.70
2023-03-18T01:24:08.455Z,6.55
2023-03-18T01:26:37.210Z,6.60
2023-03-18T01:29:04.975Z,6.20
2023-03-18T01:31:32.618Z,6.55
2023-03-18T01:34:00.105Z,6.35
2023-03-18T01:36:28.601Z,5.85
2023-03-18T01:38:58.210Z,5.57
2023-03-18T01:41:26.358Z,6.57
2023-03-18T01:43:55.878Z,5.50
2023-03-18T01:46:39.757Z,6.50
2023-03-18T01:49:20.917Z,4.60
2023-03-18T01:52:13.090Z,6.05
2023-03-18T01:54:47.817Z,6.22
2023-03-18T01:57:17.620Z,6.10
2023-03-18T01:59:46.346Z,5.47
2023-03-18T02:02:16.571Z,4.60
2023-03-18T02:04:56.829Z,5.70
2023-03-18T02:07:35.513Z,3.58
2023-03-18T02:10:11.302Z,4.22
2023-03-18T02:12:49.386Z,5.45
2023-03-18T02:15:19.926Z,4.90
2023-03-18T02:17:55.687Z,4.95
2023-03-18T02:20:44.910Z,5.60
2023-03-18T02:23:25.917Z,5.53
2023-03-18T02:26:13.928Z,5.70
2023-03-18T02:28:44.074Z,5.40
2023-03-18T02:31:17.049Z,6.55
2023-03-18T02:33:46.752Z,5.43
2023-03-18T02:36:25.610Z,5.70
2023-03-18T02:38:52.738Z,5.22
2023-03-18T02:41:23.922Z,5.75
2023-03-18T02:43:53.403Z,6.00
2023-03-18T02:46:35.868Z,3.55
2023-03-18T02:49:08.126Z,5.20
2023-03-18T02:51:37.325Z,7.05
2023-03-18T02:54:15.799Z,6.43
2023-03-18T02:56:43.852Z,6.00
2023-03-18T02:59:13.380Z,6.82
2023-03-18T03:01:43.432Z,5.38
2023-03-18T03:04:10.856Z,5.47
2023-03-18T03:06:38.573Z,5.55
2023-03-18T03:09:08.024Z,6.30
2023-03-18T03:11:36.620Z,6.70
2023-03-18T03:14:04.235Z,6.07
2023-03-18T03:16:32.056Z,5.15
2023-03-18T03:18:59.390Z,6.55
2023-03-18T03:21:28.120Z,5.00
2023-03-18T03:23:55.561Z,5.53
2023-03-18T03:26:23.071Z,4.05
2023-03-18T03:28:50.425Z,6.50
2023-03-18T03:31:18.397Z,6.47
2023-03-18T03:33:45.903Z,5.97
2023-03-18T03:36:17.276Z,7.20
2023-03-18T03:38:46.267Z,6.72
2023-03-18T03:41:14.050Z,7.85
2023-03-18T03:43:43.554Z,7.50
2023-03-18T03:46:11.619Z,7.43
2023-03-18T03:48:39.894Z,6.05
2023-03-18T03:51:12.960Z,8.63
2023-03-18T03:53:42.513Z,7.93
2023-03-18T03:56:11.664Z,7.05
2023-03-18T03:58:38.782Z,7.13
2023-03-18T04:01:08.880Z,8.50
2023-03-18T04:03:36.340Z,6.93
2023-03-18T04:06:04.816Z,8.07
2023-03-18T04:08:31.897Z,5.35
2023-03-18T04:10:59.649Z,7.78
2023-03-18T04:13:26.676Z,10.18
2023-03-18T04:15:55.083Z,7.63
2023-03-18T04:18:22.631Z,8.32
2023-03-18T04:20:50.116Z,7.80
2023-03-18T04:23:17.699Z,8.32
2023-03-18T04:25:45.308Z,7.00
2023-03-18T04:28:12.415Z,8.13
2023-03-18T04:30:40.248Z,6.43
2023-03-18T04:33:07.456Z,7.00
2023-03-18T04:35:36.793Z,6.57
2023-03-18T04:38:04.868Z,7.18
2023-03-18T04:40:33.175Z,7.35
2023-03-18T04:43:00.978Z,7.43
2023-03-18T04:45:30.650Z,5.70
2023-03-18T04:47:58.812Z,7.13
2023-03-18T04:50:26.338Z,6.50
2023-03-18T04:52:53.741Z,7.50
2023-03-18T04:55:21.620Z,7.47
2023-03-18T04:57:50.773Z,7.55
2023-03-18T05:00:23.949Z,7.32
2023-03-18T05:02:51.549Z,6.20
2023-03-18T05:05:18.875Z,6.60
2023-03-18T05:07:46.047Z,5.88
2023-03-18T05:10:13.861Z,7.20
2023-03-18T05:12:48.978Z,6.47
2023-03-18T05:15:18.572Z,5.53
2023-03-18T05:17:46.110Z,6.10
2023-03-18T05:20:14.949Z,7.90
2023-03-18T05:22:42.691Z,5.75
2023-03-18T05:25:11.787Z,4.50
2023-03-18T05:27:39.341Z,6.07
2023-03-18T05:30:09.518Z,6.07
2023-03-18T05:32:36.991Z,4.70
2023-03-18T05:35:06.136Z,5.13
2023-03-18T05:37:33.739Z,5.70
2023-03-18T05:40:02.200Z,3.78
2023-03-18T05:42:31.259Z,6.15
2023-03-18T05:44:58.648Z,6.07
2023-03-18T05:47:26.208Z,4.63
2023-03-18T05:49:54.782Z,5.25
2023-03-18T05:52:23.993Z,5.32
2023-03-18T05:54:51.518Z,5.70
2023-03-18T05:57:19.340Z,4.30
2023-03-18T05:59:46.928Z,5.60
2023-03-18T06:02:16.544Z,5.80
2023-03-18T06:04:46.382Z,5.32
2023-03-18T06:07:13.760Z,4.53
2023-03-18T06:09:41.986Z,4.80
2023-03-18T06:12:09.382Z,4.90
2023-03-18T06:14:37.568Z,4.18
2023-03-18T06:17:04.970Z,5.88
2023-03-18T06:19:34.565Z,4.50
2023-03-18T06:22:01.863Z,5.53
2023-03-18T06:24:29.129Z,4.57
2023-03-18T06:26:57.644Z,4.85
2023-03-18T06:29:26.859Z,4.38
2023-03-18T06:31:55.198Z,5.53
2023-03-18T06:34:22.697Z,6.18
2023-03-18T06:36:50.239Z,4.57
2023-03-18T06:39:18.214Z,5.35
2023-03-18T06:41:46.043Z,5.57
2023-03-18T06:44:13.552Z,5.50
2023-03-18T06:46:43.709Z,5.45
2023-03-18T06:49:11.748Z,5.47
2023-03-18T06:51:39.995Z,5.35
2023-03-18T06:54:07.636Z,5.22
2023-03-18T06:56:40.372Z,5.70
2023-03-18T06:59:08.453Z,5.50
2023-03-18T07:01:37.369Z,5.75
2023-03-18T07:04:07.200Z,5.55
2023-03-18T07:06:34.293Z,5.03
2023-03-18T07:09:01.553Z,5.25
2023-03-18T07:11:28.931Z,5.72
2023-03-18T07:13:56.530Z,4.75
2023-03-18T07:16:30.922Z,3.97
2023-03-18T07:18:59.662Z,5.80
2023-03-18T07:21:33.204Z,5.40
2023-03-18T07:26:30.348Z,4.80
2023-03-18T07:28:58.445Z,4.50
2023-03-18T07:31:25.906Z,4.60
2023-03-18T07:33:53.405Z,5.28
2023-03-18T07:36:21.032Z,5.20
2023-03-18T07:38:48.411Z,4.53
2023-03-18T07:41:15.974Z,3.80
2023-03-18T07:43:43.903Z,5.30
2023-03-18T07:46:14.371Z,5.55
2023-03-18T07:48:42.726Z,5.22
2023-03-18T07:51:10.241Z,5.07
2023-03-18T07:53:38.525Z,5.03
2023-03-18T07:56:06.455Z,4.70
2023-03-18T07:58:34.430Z,3.60
2023-03-18T08:01:02.824Z,4.60
2023-03-18T08:03:30.102Z,4.35
2023-03-18T08:05:57.714Z,4.68
2023-03-18T08:08:25.156Z,4.28
2023-03-18T08:10:57.717Z,5.20
2023-03-18T08:13:26.118Z,4.78
2023-03-18T08:15:56.494Z,4.55
2023-03-18T08:18:24.289Z,4.70
2023-03-18T08:20:53.326Z,3.08
2023-03-18T08:23:21.455Z,4.57
2023-03-18T08:25:51.230Z,4.43
2023-03-18T08:28:19.276Z,3.75
2023-03-18T08:30:47.192Z,4.90
2023-03-18T08:33:14.480Z,4.30
2023-03-18T08:35:43.060Z,4.32
2023-03-18T08:38:10.747Z,4.93
2023-03-18T08:40:41.517Z,3.42
2023-03-18T08:43:09.472Z,4.05
2023-03-18T08:45:54.175Z,4.60
2023-03-18T08:48:23.518Z,3.80
2023-03-18T08:50:50.918Z,2.20
2023-03-18T08:53:20.340Z,3.40
2023-03-18T08:55:48.835Z,3.17
2023-03-18T08:58:17.618Z,3.40
2023-03-18T09:00:45.061Z,3.33
2023-03-18T09:03:13.301Z,3.63
2023-03-18T09:05:40.660Z,3.45
2023-03-18T09:08:07.984Z,2.80
2023-03-18T09:10:36.017Z,2.80
2023-03-18T09:13:03.692Z,2.40
2023-03-18T09:15:31.976Z,4.00
2023-03-18T09:18:11.126Z,3.58
2023-03-18T09:20:41.163Z,2.83
2023-03-18T09:23:10.092Z,2.70
2023-03-18T09:25:37.644Z,3.25
2023-03-18T09:28:06.255Z,2.80
2023-03-18T09:30:34.076Z,3.40
2023-03-18T09:33:09.613Z,3.20
2023-03-18T09:35:38.103Z,2.75
2023-03-18T09:38:05.799Z,2.67
2023-03-18T09:40:40.602Z,2.55
2023-03-18T09:43:20.926Z,3.00
2023-03-18T09:46:07.057Z,2.72
2023-03-18T09:48:40.791Z,2.60
2023-03-18T09:53:53.624Z,2.45
2023-03-18T09:56:35.168Z,3.08
2023-03-18T09:59:21.888Z,2.72
2023-03-18T10:01:55.847Z,2.80
2023-03-18T10:04:28.125Z,2.97
2023-03-18T10:07:04.348Z,2.85
2023-03-18T10:09:40.590Z,2.50
2023-03-18T10:12:21.411Z,2.65
2023-03-18T10:15:04.718Z,2.53
2023-03-18T10:17:39.177Z,2.72
2023-03-18T10:20:17.977Z,3.08
2023-03-18T10:23:01.240Z,3.00
2023-03-18T10:25:55.084Z,3.08
2023-03-18T10:28:56.678Z,3.03
2023-03-18T10:32:00.234Z,2.38
2023-03-18T10:34:54.391Z,3.10
2023-03-18T10:38:07.000Z,2.70
2023-03-18T10:40:41.554Z,3.10
2023-03-18T10:43:28.560Z,3.05
2023-03-18T10:46:07.652Z,3.72
2023-03-18T10:48:41.230Z,3.75
2023-03-18T10:51:33.948Z,3.78
2023-03-18T10:54:16.179Z,3.53
2023-03-18T10:56:43.762Z,2.97
2023-03-18T10:59:16.572Z,3.25
2023-03-18T11:01:48.527Z,3.30
2023-03-18T11:04:24.010Z,2.38
2023-03-18T11:07:03.987Z,2.40
2023-03-18T11:09:34.345Z,3.20
2023-03-18T11:12:07.158Z,3.40
2023-03-18T11:14:38.437Z,4.03
2023-03-18T11:17:19.994Z,3.33
2023-03-18T11:19:49.626Z,3.25
2023-03-18T11:22:28.360Z,3.80
2023-03-18T11:25:13.379Z,3.65
2023-03-18T11:27:46.648Z,4.18
2023-03-18T11:30:34.876Z,3.85
2023-03-18T11:33:12.671Z,3.72
2023-03-18T11:35:46.425Z,4.85
2023-03-18T11:40:49.572Z,3.78
2023-03-18T11:43:20.946Z,4.90
2023-03-18T11:45:51.567Z,3.97
2023-03-18T11:48:39.642Z,4.00
2023-03-18T11:51:28.973Z,4.03
2023-03-18T11:54:14.515Z,4.13
2023-03-18T11:56:47.260Z,4.55
2023-03-18T11:59:25.818Z,3.72
2023-03-18T12:01:57.977Z,4.50
2023-03-18T12:04:53.974Z,4.13
2023-03-18T12:07:38.194Z,3.80
2023-03-18T12:10:24.980Z,3.88
2023-03-18T12:13:29.962Z,3.88
2023-03-18T12:16:19.107Z,3.22
2023-03-18T12:19:20.208Z,2.95
2023-03-18T12:21:53.114Z,2.75
2023-03-18T12:24:40.382Z,2.93
2023-03-18T12:27:32.791Z,3.85
2023-03-18T12:30:12.979Z,3.70
2023-03-18T12:33:18.586Z,2.80
2023-03-18T12:36:03.438Z,2.83
2023-03-18T12:38:54.945Z,3.65
2023-03-18T12:41:28.276Z,2.80
2023-03-18T12:44:15.845Z,3.67
2023-03-18T12:47:09.775Z,3.50
2023-03-18T12:49:45.470Z,3.83
2023-03-18T12:52:24.931Z,4.10
2023-03-18T12:55:07.938Z,3.85
2023-03-18T12:57:44.546Z,3.67
2023-03-18T13:00:28.324Z,3.47
2023-03-18T13:03:07.232Z,3.88
2023-03-18T13:05:59.198Z,3.83
2023-03-18T13:08:42.387Z,3.55
2023-03-18T13:11:36.861Z,4.13
2023-03-18T13:14:26.563Z,3.72
2023-03-18T13:16:56.542Z,4.55
2023-03-18T13:19:24.464Z,3.20
2023-03-18T13:22:07.836Z,3.97
2023-03-18T13:25:03.965Z,3.78
2023-03-18T13:28:11.050Z,3.88
2023-03-18T13:31:00.604Z,3.97
2023-03-18T13:33:46.256Z,4.30
2023-03-18T13:36:47.644Z,4.00
2023-03-18T13:39:19.777Z,3.72
2023-03-18T13:42:05.608Z,4.30
2023-03-18T13:44:46.318Z,4.18
2023-03-18T13:47:23.793Z,3.30
2023-03-18T13:50:05.034Z,4.60
2023-03-18T13:52:48.156Z,3.88
2023-03-18T13:55:47.695Z,4.23
2023-03-18T13:58:30.669Z,4.30
2023-03-18T14:01:21.216Z,4.10
2023-03-18T14:03:51.869Z,4.22
2023-03-18T14:06:36.055Z,4.00
2023-03-18T14:09:33.232Z,3.95
2023-03-18T14:12:39.233Z,4.60
2023-03-18T14:15:09.626Z,4.20
2023-03-18T14:17:58.785Z,3.67
2023-03-18T14:20:45.253Z,4.25
2023-03-18T14:23:37.574Z,4.43
2023-03-18T14:26:22.292Z,4.65
2023-03-18T14:29:15.820Z,3.47
2023-03-18T14:31:43.532Z,4.20
2023-03-18T14:34:20.080Z,4.10
2023-03-18T14:36:53.104Z,4.10
2023-03-18T14:39:31.808Z,4.38
2023-03-18T14:42:02.938Z,4.78
2023-03-18T14:44:54.976Z,4.43
2023-03-18T14:47:40.682Z,4.10
2023-03-18T14:50:22.457Z,4.35
2023-03-18T14:53:12.782Z,3.90
2023-03-18T14:55:40.675Z,4.10
2023-03-18T14:58:18.763Z,4.45
2023-03-18T15:00:52.761Z,4.40
2023-03-18T15:03:25.157Z,4.35
2023-03-18T15:05:58.412Z,4.18
2023-03-18T15:08:44.613Z,4.60
2023-03-18T15:11:20.754Z,4.22
2023-03-18T15:13:48.234Z,4.38
2023-03-18T15:16:20.375Z,4.30
2023-03-18T15:18:54.074Z,4.68
2023-03-18T15:21:26.184Z,4.95
2023-03-18T15:23:57.824Z,4.93
2023-03-18T15:26:31.547Z,4.93
2023-03-18T15:31:32.740Z,4.97
2023-03-18T15:34:21.189Z,4.30
2023-03-18T15:36:57.388Z,4.72
2023-03-18T15:39:41.299Z,4.70
2023-03-18T15:42:17.832Z,4.40
2023-03-18T15:44:58.790Z,3.70
2023-03-18T15:47:32.529Z,4.50
2023-03-18T15:52:34.505Z,4.55
2023-03-18T15:55:02.182Z,4.15
2023-03-18T15:57:43.829Z,4.20
2023-03-18T16:00:13.647Z,4.70
2023-03-18T16:02:42.166Z,4.47
2023-03-18T16:05:19.662Z,4.97
2023-03-18T16:07:48.379Z,4.72
2023-03-18T16:10:20.541Z,4.80
2023-03-18T16:12:55.869Z,5.00
2023-03-18T16:15:26.318Z,4.82
2023-03-18T16:17:55.530Z,5.07
2023-03-18T16:20:26.423Z,5.60
2023-03-18T16:22:54.474Z,4.93
2023-03-18T16:25:24.422Z,4.72
2023-03-18T16:27:54.837Z,4.75
2023-03-18T16:30:31.354Z,4.65
2023-03-18T16:32:59.474Z,5.03
2023-03-18T16:35:33.092Z,5.35
2023-03-18T16:40:32.371Z,4.75
2023-03-18T16:43:02.864Z,4.18
2023-03-18T16:45:34.487Z,4.50
2023-03-18T16:48:07.670Z,5.28
2023-03-18T16:50:38.568Z,5.10
2023-03-18T16:53:18.639Z,5.03
2023-03-18T16:55:48.630Z,5.57
2023-03-18T16:58:23.153Z,5.80
2023-03-18T17:00:51.759Z,5.53
2023-03-18T17:03:20.021Z,5.93
2023-03-18T17:05:52.437Z,6.80
2023-03-18T17:08:22.386Z,6.65
2023-03-18T17:10:53.881Z,6.25
2023-03-18T17:13:26.498Z,6.78
2023-03-18T17:15:54.268Z,7.57
2023-03-18T17:18:23.986Z,7.20
2023-03-18T17:20:57.922Z,7.47
2023-03-18T17:23:29.071Z,7.60
2023-03-18T17:26:01.166Z,8.23
2023-03-18T17:28:39.323Z,8.02
2023-03-18T17:31:08.256Z,8.02
2023-03-18T17:33:37.559Z,8.27
2023-03-18T17:36:07.140Z,8.00
2023-03-18T17:38:37.873Z,7.50
2023-03-18T17:41:13.435Z,8.88
2023-03-18T17:43:42.746Z,7.53
2023-03-18T17:46:11.742Z,8.48
2023-03-18T17:48:41.907Z,8.73
2023-03-18T17:51:21.571Z,8.05
2023-03-18T17:53:52.060Z,8.32
2023-03-18T17:56:20.876Z,9.23
2023-03-18T17:58:52.262Z,9.90
2023-03-18T18:01:29.960Z,9.57
2023-03-18T18:04:00.229Z,10.43
2023-03-18T18:06:29.943Z,10.40
2023-03-18T18:09:09.584Z,10.80
2023-03-18T18:11:44.545Z,11.00
2023-03-18T18:14:26.048Z,11.00
2023-03-18T18:16:56.948Z,10.60
2023-03-18T18:19:25.216Z,9.18
2023-03-18T18:22:03.510Z,9.85
2023-03-18T18:24:34.231Z,9.80
2023-03-18T18:27:03.672Z,10.02
2023-03-18T18:29:35.082Z,9.13
2023-03-18T18:32:03.145Z,9.50
2023-03-18T18:34:33.619Z,9.23
2023-03-18T18:37:03.724Z,9.00
2023-03-18T18:39:31.849Z,8.75
2023-03-18T18:42:00.465Z,8.85
2023-03-18T18:44:29.338Z,7.20
2023-03-18T18:46:58.169Z,8.80
2023-03-18T18:49:27.106Z,8.00
2023-03-18T18:51:57.393Z,9.23
2023-03-18T18:54:26.276Z,9.02
2023-03-18T18:56:55.785Z,8.15
2023-03-18T18:59:29.334Z,8.82
2023-03-18T19:01:57.924Z,8.48
2023-03-18T19:04:27.799Z,9.15
2023-03-18T19:06:56.557Z,7.47
2023-03-18T19:09:31.162Z,8.45
2023-03-18T19:12:00.710Z,8.93
2023-03-18T19:14:30.364Z,8.27
2023-03-18T19:17:00.757Z,8.10
2023-03-18T19:19:34.332Z,7.82
2023-03-18T19:22:04.963Z,8.35
2023-03-18T19:24:40.471Z,8.25
2023-03-18T19:27:27.586Z,8.75
2023-03-18T19:30:06.040Z,7.78
2023-03-18T19:32:35.526Z,7.85
2023-03-18T19:35:03.744Z,7.63
2023-03-18T19:37:33.309Z,7.60
2023-03-18T19:40:07.672Z,7.82
2023-03-18T19:42:36.879Z,9.07
2023-03-18T19:45:07.569Z,8.00
2023-03-18T19:47:36.973Z,8.23
2023-03-18T19:50:19.173Z,8.52
2023-03-18T19:52:48.579Z,7.95
2023-03-18T19:55:17.752Z,8.32
2023-03-18T19:57:51.611Z,7.43
2023-03-18T20:00:26.002Z,8.13
2023-03-18T20:02:54.201Z,8.30
2023-03-18T20:05:25.512Z,8.65
2023-03-18T20:07:53.841Z,8.38
2023-03-18T20:10:26.824Z,8.75
2023-03-18T20:12:54.646Z,9.25
2023-03-18T20:15:29.081Z,8.35
2023-03-18T20:18:04.626Z,8.43
2023-03-18T20:20:39.673Z,8.80
2023-03-18T20:23:13.404Z,8.60
2023-03-18T20:28:23.833Z,8.27
2023-03-18T20:30:56.872Z,8.35
2023-03-18T20:33:25.173Z,8.60
2023-03-18T20:35:56.922Z,8.77
2023-03-18T20:38:38.340Z,8.18
2023-03-18T20:41:18.477Z,9.02
2023-03-18T20:43:50.761Z,9.40
2023-03-18T20:46:23.839Z,9.00
2023-03-18T20:48:59.501Z,8.63
2023-03-18T20:51:35.181Z,9.95
2023-03-18T20:54:39.370Z,9.90
2023-03-18T20:57:12.182Z,9.55
2023-03-18T20:59:40.672Z,9.63
2023-03-18T21:02:36.825Z,9.60
2023-03-18T21:05:19.289Z,9.25
2023-03-18T21:07:50.165Z,9.57
2023-03-18T21:10:26.372Z,10.10
2023-03-18T21:12:55.338Z,9.32
2023-03-18T21:15:26.899Z,10.07
2023-03-18T21:17:55.579Z,10.55
2023-03-18T21:20:40.308Z,9.73
2023-03-18T21:23:29.206Z,9.18
2023-03-18T21:25:58.184Z,9.70
2023-03-18T21:28:31.829Z,9.98
2023-03-18T21:31:03.088Z,10.15
2023-03-18T21:33:33.697Z,10.18
2023-03-18T21:36:02.585Z,9.82
2023-03-18T21:38:31.962Z,10.23
2023-03-18T21:41:02.765Z,9.45
2023-03-18T21:43:34.476Z,9.73
2023-03-18T21:46:04.393Z,9.45
2023-03-18T21:48:32.700Z,9.52
2023-03-18T21:51:00.410Z,9.60
2023-03-18T21:53:28.963Z,8.90
2023-03-18T21:55:56.614Z,10.18
2023-03-18T21:58:28.615Z,9.50
2023-03-18T22:01:01.494Z,9.70
2023-03-18T22:03:35.028Z,9.95
2023-03-18T22:06:14.055Z,12.15
2023-03-18T22:08:42.316Z,11.48
2023-03-18T22:11:18.747Z,10.90
2023-03-18T22:13:47.888Z,11.25
2023-03-18T22:16:16.856Z,11.35
2023-03-18T22:18:47.595Z,10.95
2023-03-18T22:21:23.669Z,11.43
2023-03-18T22:23:52.090Z,11.32
2023-03-18T22:26:20.386Z,12.20
2023-03-18T22:28:50.930Z,12.98
2023-03-18T22:31:26.308Z,11.23
2023-03-18T22:33:54.397Z,10.65
2023-03-18T22:36:22.212Z,10.20
2023-03-18T22:38:50.257Z,9.75
2023-03-18T22:41:24.645Z,9.75
2023-03-18T22:43:52.450Z,10.02
2023-03-18T22:46:20.214Z,9.35
2023-03-18T22:48:53.728Z,10.13
2023-03-18T22:51:27.756Z,9.68
2023-03-18T22:53:55.638Z,9.10
2023-03-18T22:56:24.218Z,9.80
2023-03-18T22:58:52.173Z,9.73
2023-03-18T23:01:23.326Z,9.75
2023-03-18T23:03:56.898Z,9.38
2023-03-18T23:06:27.499Z,10.15
2023-03-18T23:08:54.795Z,9.63
2023-03-18T23:11:22.240Z,9.38
2023-03-18T23:13:52.442Z,9.75
2023-03-18T23:16:22.405Z,10.35
2023-03-18T23:18:50.858Z,9.40
2023-03-18T23:21:22.144Z,10.15
2023-03-18T23:23:49.838Z,8.95
2023-03-18T23:26:17.621Z,9.73
2023-03-18T23:28:46.213Z,9.23
2023-03-18T23:31:16.878Z,9.63
2023-03-18T23:33:45.482Z,9.05
2023-03-18T23:36:13.285Z,9.32
2023-03-18T23:38:41.025Z,9.13
2023-03-18T23:41:08.628Z,9.63
2023-03-18T23:43:35.983Z,9.60
2023-03-18T23:46:04.107Z,9.20
2023-03-18T23:48:31.870Z,9.57
2023-03-18T23:50:59.189Z,9.55
2023-03-18T23:53:26.528Z,9.88
2023-03-18T23:55:53.771Z,10.27
2023-03-18T23:58:21.344Z,10.05
